Terminal Aerodrome Forecast
Issued by NWS Mt. Holly, NJ

Home | Current Version | Previous Version | Text Only | Print | Product List | Glossary On
Versions: 1 2 3 4 5 6 7 8 9 10 11 12 13 14 15 16 17 18 19
236
FTUS41 KPHI 230525
TAFRDG
TAF
KRDG 230525Z 2306/2406 VRB05KT P6SM OVC250
     FM230800 VRB02KT 5SM BR BKN250
     FM231000 23005KT P6SM BKN050 OVC120
     FM231400 23008KT 4SM SHRA OVC015
      TEMPO 2314/2318 3SM TSRA BKN010CB
     FM231800 24012G18KT P6SM SCT025 OVC050 PROB30 2318/2322 3SM
      TSRA BKN025CB
     FM232200 22010KT P6SM OVC040
     FM240400 24007KT 4SM SHRA OVC040=

USA.gov is the U.S. government's official web portal to all federal, state and local government web resources and services.